• Join FlightAware (Why Join?)
  • Login
  • US Flag 
08:14AM EDT


 

Airport Tracker/Info


-or-


 

Live Flight TrackerFlight Track Log ✈ SWA631 ✈ 20-Apr-2013 ✈ KMDW - KLAS

Flight Track Log - Related Links

Times and Time Zones

All times are in EDT time to prevent confusion due to time zone crossing. See the SWA631 flight status page for this flight to view local times or setup timezone preferences in your user account.

Time Position Orientation Groundspeed Altitude Reporting Facility
EDT Latitude Longitude Course Direction KTS MPH feet Rate Location/Type
07:55PM 41.8108 -87.7328 267° West 153 176 2,400  Level Chicago Center
07:56PM 41.8167 -87.7667 283° West 192 221 2,900 360 Climbing Chicago TRACON
07:57PM 41.8000 -87.8333 251° West 217 250 3,000  Climbing Chicago TRACON
07:58PM 41.7833 -87.9000 251° West 217 250 3,000  Level Chicago TRACON
07:58PM 41.7817 -87.9447 267° West 223 257 3,000 600 Level Chicago Center
07:59PM 41.7775 -88.0464 267° West 227 261 4,000 780 Climbing Chicago Center
08:00PM 41.7886 -88.1386 279° West 250 288 4,600 2,040 Climbing Chicago Center
08:01PM 41.7316 -88.6234 267° West  Level FlightAware Approximate
08:01PM 41.8214 -88.2219 298° West 256 295 8,200  Level Chicago Center
08:02PM 41.8211 -88.3203 270° West 266 306 11,000 2,580 Climbing Chicago Center
08:03PM 41.8214 -88.4333 270° West 300 345 13,500 2,640 Climbing Chicago Center
08:04PM 41.8192 -88.5508 269° West 315 362 16,400 2,640 Climbing Chicago Center
08:05PM 41.8181 -88.6992 269° West 331 381 19,000 2,340 Climbing Chicago Center
08:06PM 41.8192 -88.8253 271° West 339 390 21,300 2,160 Climbing Chicago Center
08:07PM 41.8178 -88.9558 269° West 350 403 23,400 1,560 Climbing Chicago Center
08:08PM 41.8192 -89.0878 271° West 357 411 24,500 1,140 Climbing Chicago Center
08:09PM 41.8211 -89.2336 271° West 387 445 25,800 1,320 Climbing Chicago Center
08:10PM 41.8072 -89.3814 263° West 400 460 27,300 1,620 Climbing Chicago Center
08:11PM 41.7972 -89.5261 265° West 396 456 29,200 1,800 Climbing Chicago Center
08:12PM 41.7856 -89.6906 265° West 388 447 31,000 1,500 Climbing Chicago Center
08:14PM 41.7753 -89.8333 265° West 388 447 32,300 1,200 Climbing Chicago Center
08:15PM 41.7644 -89.9767 264° West 389 448 33,500 1,020 Climbing Chicago Center
08:16PM 41.7539 -90.1169 264° West 384 442 34,500 780 Climbing Chicago Center
08:17PM 41.7422 -90.2619 264° West 392 451 35,100 600 Climbing Chicago Center
08:18PM 41.7289 -90.4136 263° West 405 466 35,800 420 Climbing Chicago Center
08:19PM 41.7167 -90.5592 264° West 400 460 36,000 60 Climbing Chicago Center
08:20PM 41.7058 -90.7328 265° West 401 461 36,000  Level Chicago Center
08:21PM 41.7058 -90.8819 270° West 403 464 36,000  Level Chicago Center
08:22PM 41.7036 -91.0317 269° West 406 467 36,000  Level Chicago Center
08:23PM 41.6917 -91.1811 264° West 406 467 36,000  Level Chicago Center
08:24PM 41.6783 -91.3311 263° West 407 468 36,000  Level Chicago Center
08:25PM 41.6644 -91.4792 263° West 404 465 36,000  Level Chicago Center
08:26PM 41.6506 -91.6283 263° West 406 467 36,000  Level Chicago Center
08:27PM 41.6364 -91.7742 263° West 399 459 36,000  Level Chicago Center
08:28PM 41.6222 -91.9214 263° West 400 460 36,000  Level Chicago Center
08:29PM 41.6050 -92.0969 263° West 399 459 36,000  Level Chicago Center
08:30PM 41.5908 -92.2453 263° West 403 464 36,000  Level Chicago Center
08:31PM 41.5758 -92.3908 262° West 400 460 36,000  Level Chicago Center
08:32PM 41.5611 -92.5378 262° West 402 463 36,000  Level Chicago Center
08:33PM 41.5464 -92.6783 262° West 403 464 36,000  Level Minneapolis Center
08:34PM 41.5317 -92.8272 263° West 406 467 36,000  Level Minneapolis Center
08:35PM 41.5156 -92.9761 262° West 409 471 36,000  Level Minneapolis Center
08:36PM 41.4994 -93.1242 262° West 408 470 36,000  Level Minneapolis Center
08:37PM 41.4831 -93.2697 261° West 405 466 36,000  Level Minneapolis Center
08:38PM 41.4636 -93.4475 262° West 406 467 36,000  Level Minneapolis Center
08:39PM 41.4486 -93.5906 262° West 398 458 36,000  Level Minneapolis Center
08:40PM 41.4328 -93.7361 262° West 400 460 36,000  Level Minneapolis Center
08:41PM 41.4164 -93.8822 262° West 402 463 36,000  Level Minneapolis Center
08:42PM 41.3983 -94.0281 261° West 402 463 36,000  Level Minneapolis Center
08:43PM 41.3828 -94.1744 262° West 402 463 36,000  Level Minneapolis Center
08:44PM 41.3611 -94.3489 261° West 402 463 36,000  Level Minneapolis Center
08:45PM 41.3425 -94.4967 261° West 404 465 36,000  Level Minneapolis Center
08:46PM 41.3253 -94.6469 261° West 407 468 36,000  Level Minneapolis Center
08:47PM 41.3078 -94.7972 261° West 411 473 36,000  Level Minneapolis Center
08:48PM 41.2894 -94.9467 261° West 410 472 36,000  Level Minneapolis Center
08:49PM 41.2703 -95.0958 260° West 410 472 36,000  Level Minneapolis Center
08:50PM 41.2517 -95.2453 261° West 410 472 36,000  Level Minneapolis Center
08:51PM 41.2319 -95.3944 260° West 409 471 36,000  Level Minneapolis Center
08:52PM 41.2122 -95.5450 260° West 412 474 36,000  Level Minneapolis Center
08:53PM 41.1961 -95.6694 260° West 412 474 36,000  Level Minneapolis Center
08:54PM 41.1683 -95.8811 260° West 416 479 36,000  Level Minneapolis Center
08:55PM 41.1483 -96.0331 260° West 417 480 36,000  Level Minneapolis Center
08:56PM 41.1281 -96.1828 260° West 413 475 36,000  Level Minneapolis Center
08:57PM 41.1067 -96.3386 260° West 415 478 36,000  Level Minneapolis Center
08:58PM 41.0867 -96.4883 260° West 414 476 36,000  Level Minneapolis Center
08:59PM 41.0647 -96.6397 259° West 415 478 36,000  Level Minneapolis Center
09:00PM 41.0436 -96.7886 259° West 413 475 36,000  Level Minneapolis Center
09:01PM 41.0228 -96.9372 260° West 411 473 36,000  Level Minneapolis Center
09:02PM 41.0014 -97.0869 259° West 413 475 36,000  Level Minneapolis Center
09:04PM 40.9803 -97.2367 259° West 413 475 36,000  Level Minneapolis Center
09:05PM 40.9547 -97.4119 259° West 414 476 36,000  Level Minneapolis Center
09:06PM 40.9322 -97.5619 259° West 415 478 36,000  Level Minneapolis Center
09:07PM 40.9100 -97.7114 259° West 414 476 36,000  Level Minneapolis Center
09:08PM 40.8881 -97.8606 259° West 413 475 36,000  Level Minneapolis Center
09:09PM 40.8606 -98.0403 259° West 414 476 36,000  Level Minneapolis Center
09:10PM 40.8375 -98.1911 259° West 416 479 36,000  Level Minneapolis Center
09:11PM 40.8136 -98.3414 258° West 417 480 36,000  Level Minneapolis Center
09:12PM 40.7906 -98.4914 259° West 416 479 36,000  Level Minneapolis Center
09:13PM 40.7667 -98.6403 258° West 415 478 36,000  Level Minneapolis Center
09:14PM 40.7428 -98.7942 258° West 416 479 36,000  Level Minneapolis Center
09:15PM 40.7183 -98.9453 258° West 418 481 36,000  Level Minneapolis Center
09:16PM 40.6950 -99.0947 258° West 415 478 36,000  Level Minneapolis Center
09:17PM 40.6689 -99.2456 257° West 419 482 36,000  Level Denver Center
09:18PM 40.6444 -99.3958 258° West 418 481 36,000  Level Denver Center
09:19PM 40.6192 -99.5453 257° West 417 480 36,000  Level Denver Center
09:20PM 40.5942 -99.6964 258° West 421 484 36,000  Level Denver Center
09:21PM 40.5703 -99.8469 258° West 420 483 36,000  Level Denver Center
09:22PM 40.5428 -100.0083 257° West 421 484 36,000  Level Denver Center
09:23PM 40.5169 -100.1517 257° West 419 482 36,000  Level Denver Center
09:24PM 40.4911 -100.2942 257° West 416 479 36,000  Level Denver Center
09:25PM 40.4628 -100.4603 257° West 417 480 36,000  Level Denver Center
09:26PM 40.4383 -100.6036 257° West 417 480 36,000  Level Denver Center
09:27PM 40.4092 -100.7700 257° West 416 479 36,000  Level Denver Center
09:28PM 40.3833 -100.9136 257° West 419 482 36,000  Level Denver Center
09:29PM 40.3481 -101.1033 256° West 416 479 36,000  Level Denver Center
09:30PM 40.3219 -101.2453 256° West 418 481 36,000  Level Denver Center
09:31PM 40.2950 -101.3878 256° West 419 482 36,000  Level Denver Center
09:32PM 40.2653 -101.5533 257° West 418 481 36,000  Level Denver Center
09:33PM 40.2394 -101.6972 257° West 424 488 36,000  Level Denver Center
09:34PM 40.2117 -101.8383 256° West 421 484 36,000  Level Denver Center
09:35PM 40.1811 -102.0047 257° West 420 483 36,000  Level Denver Center
09:36PM 40.1542 -102.1453 256° West 418 481 36,000  Level Denver Center
09:37PM 40.1217 -102.3081 255° West 415 478 36,000  Level Denver Center
09:39PM 40.0947 -102.4486 256° West 415 478 36,000  Level Denver Center
09:40PM 40.0675 -102.5894 256° West 417 480 36,000  Level Denver Center
09:41PM 40.0350 -102.7547 256° West 418 481 36,000  Level Denver Center
09:42PM 40.0050 -102.9019 255° West 417 480 36,000  Level Denver Center
09:43PM 39.9764 -103.0500 256° West 418 481 36,000  Level Denver Center
09:44PM 39.9458 -103.1964 255° West 416 479 36,000  Level Denver Center
09:45PM 39.9158 -103.3456 255° West 421 484 36,000  Level Denver Center
09:46PM 39.8806 -103.5203 255° West 426 490 36,000  Level Denver Center
09:47PM 39.8494 -103.6694 255° West 424 488 36,000  Level Denver Center
09:48PM 39.8192 -103.8231 256° West 435 501 36,000  Level Denver Center
09:49PM 39.7836 -103.9961 255° West 426 490 36,000  Level Denver Center
09:50PM 39.7519 -104.1431 254° West 419 482 36,000  Level Denver Center
09:51PM 39.7206 -104.2886 254° West 415 478 36,000  Level Denver Center
09:52PM 39.6894 -104.4350 255° West 417 480 36,000  Level Denver Center
09:53PM 39.6578 -104.5803 254° West 416 479 36,000  Level Denver Center
09:54PM 39.6269 -104.7272 255° West 422 486 36,000  Level Denver Center
09:55PM 39.5967 -104.8608 254° West 409 471 36,000  Level Denver Center
09:56PM 39.5653 -105.0053 254° West 407 468 36,000  Level Denver Center
09:57PM 39.5267 -105.1775 254° West 420 483 36,000  Level Denver Center
09:58PM 39.4944 -105.3214 254° West 411 473 36,000  Level Denver Center
09:59PM 39.4617 -105.4672 254° West 417 480 36,000  Level Denver Center
10:00PM 39.4297 -105.6106 254° West 411 473 36,000  Level Denver Center
10:01PM 39.3978 -105.7553 254° West 412 474 36,000  Level Denver Center
10:02PM 39.3653 -105.8983 254° West 412 474 36,000  Level Denver Center
10:03PM 39.3314 -106.0428 253° West 414 476 36,000  Level Denver Center
10:04PM 39.2997 -106.1800 253° West 414 476 36,000  Level Denver Center
10:05PM 39.2647 -106.3386 254° West 411 473 36,000  Level Denver Center
10:06PM 39.2322 -106.4739 253° West 412 474 36,000  Level Denver Center
10:07PM 39.1994 -106.6089 253° West 411 473 36,000  Level Denver Center
10:08PM 39.1633 -106.7664 254° West 411 473 36,000  Level Denver Center
10:09PM 39.1300 -106.9017 252° West 413 475 36,000  Level Denver Center
10:10PM 39.0931 -107.0586 253° West 411 473 36,000  Level Denver Center
10:11PM 39.0603 -107.1947 253° West 413 475 36,000  Level Denver Center
10:12PM 39.0258 -107.3322 252° West 420 483 36,000  Level Denver Center
10:13PM 38.9875 -107.4917 253° West 417 480 36,000  Level Denver Center
10:14PM 38.9533 -107.6292 252° West 420 483 36,000  Level Denver Center
10:15PM 38.9194 -107.7658 252° West 420 483 36,000  Level Denver Center
10:17PM 38.8803 -107.9275 253° West 423 487 36,000  Level Denver Center
10:18PM 38.8453 -108.0664 252° West 427 491 36,000  Level Denver Center
10:19PM 38.8108 -108.2008 252° West 417 480 36,000  Level Denver Center
10:20PM 38.7725 -108.3567 253° West 409 471 36,000  Level Denver Center
10:21PM 38.7389 -108.4906 252° West 411 473 36,000  Level Denver Center
10:22PM 38.7042 -108.6247 252° West 413 475 36,000  Level Denver Center
10:23PM 38.6644 -108.7808 252° West 413 475 36,000  Level Denver Center
10:24PM 38.6294 -108.9136 251° West 410 472 36,000  Level Denver Center
10:25PM 38.5956 -109.0475 252° West 411 473 36,000  Level Denver Center
10:26PM 38.5539 -109.2022 251° West 408 470 36,000  Level Denver Center
10:27PM 38.5192 -109.3344 251° West 410 472 36,000  Level Denver Center
10:28PM 38.4789 -109.4861 251° West 405 466 36,000  Level Denver Center
10:29PM 38.4444 -109.6164 251° West 403 464 36,000  Level Denver Center
10:30PM 38.4103 -109.7458 251° West 403 464 36,000  Level Denver Center
10:31PM 38.3694 -109.8936 251° West 397 457 36,000  Level Denver Center
10:32PM 38.3350 -110.0244 251° West 404 465 36,000  Level Denver Center
10:33PM 38.2839 -110.1483 242° Southwest 413 475 36,000  Level Denver Center
10:34PM 38.2242 -110.2933 242° Southwest 414 476 36,000  Level Denver Center
10:35PM 38.1733 -110.4194 243° Southwest 418 481 36,000  Level Denver Center
10:36PM 38.1214 -110.5436 242° Southwest 416 479 36,000  Level Denver Center
10:37PM 38.0614 -110.6906 243° Southwest 418 481 36,000  Level Denver Center
10:38PM 38.0103 -110.8150 242° Southwest 417 480 36,000  Level Denver Center
10:39PM 37.9594 -110.9331 241° Southwest 419 482 36,000  Level Denver Center
10:40PM 37.8939 -111.0897 242° Southwest 419 482 36,000  Level Denver Center
10:41PM 37.8389 -111.2194 242° Southwest 419 482 36,000  Level Denver Center
10:42PM 37.7861 -111.3483 243° Southwest 415 478 36,000  Level Denver Center
10:43PM 37.7106 -111.5250 242° Southwest 410 472 36,000  Level Denver Center
10:44PM 37.6669 -111.6264 242° Southwest 407 468 36,000  Level Salt Lake Center
10:45PM 37.6131 -111.7528 242° Southwest 408 470 36,000  Level Salt Lake Center
10:46PM 37.5594 -111.8797 242° Southwest 410 472 36,000  Level Salt Lake Center
10:47PM 37.5042 -112.0072 241° Southwest 414 476 36,000 -120 Level Salt Lake Center
10:48PM 37.4489 -112.1344 241° Southwest 413 475 35,800 -600 Descending Salt Lake Center
10:49PM 37.3931 -112.2611 241° Southwest 414 476 34,800 -1,080 Descending Salt Lake Center
10:50PM 37.3714 -112.3106 241° Southwest 410 472 34,400 -1,200 Descending Los Angeles Center
10:50PM 37.3283 -112.4111 242° Southwest 408 470 33,600 -1,020 Descending Salt Lake Center
10:51PM 37.3169 -112.4356 240° Southwest 407 468 33,400 -1,020 Descending Los Angeles Center
10:52PM 37.2614 -112.5581 240° Southwest 403 464 32,300 -1,140 Descending Los Angeles Center
10:52PM 37.2192 -112.6550 241° Southwest 398 458 31,500 -1,080 Descending Salt Lake Center
10:53PM 37.1664 -112.7758 241° Southwest 394 453 30,500 -1,020 Descending Salt Lake Center
10:54PM 37.1128 -112.8939 240° Southwest 390 449 29,500 -900 Descending Salt Lake Center
10:55PM 37.1028 -112.9172 242° Southwest 387 445 29,300 -1,080 Descending Los Angeles Center
10:56PM 37.0411 -113.0550 241° Southwest 379 436 28,100 -1,140 Descending Los Angeles Center
10:57PM 36.9917 -113.1661 241° Southwest 368 423 27,000 -1,080 Descending Los Angeles Center
10:58PM 36.9425 -113.2750 241° Southwest 362 417 26,000 -1,020 Descending Los Angeles Center
10:59PM 36.8939 -113.3836 241° Southwest 358 412 25,000 -1,020 Descending Los Angeles Center
11:00PM 36.8456 -113.4906 241° Southwest 355 409 24,000 -1,020 Descending Los Angeles Center
11:01PM 36.7969 -113.5967 240° Southwest 352 405 23,000 -1,020 Descending Los Angeles Center
11:02PM 36.7486 -113.7039 241° Southwest 354 407 22,000 -1,200 Descending Los Angeles Center
11:03PM 36.7019 -113.8089 241° Southwest 350 403 20,600 -1,320 Descending Los Angeles Center
11:04PM 36.6511 -113.9172 240° Southwest 358 412 19,400 -1,080 Descending Los Angeles Center
11:05PM 36.5983 -114.0339 241° Southwest 379 436 18,500 -1,260 Descending Los Angeles Center
11:06PM 36.5464 -114.1481 241° Southwest 382 440 16,900 -2,100 Descending Los Angeles Center
11:07PM 36.5056 -114.2436 242° Southwest 380 437 15,000 -2,400 Descending Los Angeles Center
11:07PM 36.4922 -114.2675 235° Southwest 369 425 14,500 -2,040 Descending Los Angeles Center
11:07PM 36.4722 -114.3167 243° Southwest 357 411 13,600 -1,980 Descending Los Angeles Center
11:08PM 36.4431 -114.3733 237° Southwest 357 411 12,500 -1,200 Descending Los Angeles Center
11:09PM 36.4139 -114.4439 243° Southwest 332 382 12,200 -540 Descending Los Angeles Center
11:09PM 36.3972 -114.4708 232° Southwest 331 381 12,000 -240 Descending Los Angeles Center
11:09PM 36.3497 -114.4950 202° Southwest 323 372 12,000 -540 Level Los Angeles Center
11:10PM 36.3139 -114.5131 202° Southwest 327 376 11,500 -1,440 Descending Los Angeles Center
11:11PM 36.2806 -114.5828 239° Southwest 295 339 10,300 -1,500 Descending Los Angeles Center
11:11PM 36.2697 -114.5994 231° Southwest 298 343 10,000 -1,320 Descending Los Angeles Center
11:12PM 36.2319 -114.6658 235° Southwest 289 333 9,000 -1,500 Descending Los Angeles Center
11:12PM 36.2139 -114.6961 234° Southwest 288 331 8,500 -1,320 Descending Los Angeles Center
11:13PM 36.1917 -114.7381 237° Southwest 281 323 7,800 -1,200 Descending Los Angeles Center
11:13PM 36.1708 -114.7747 235° Southwest 279 321 7,300 -720 Descending Los Angeles Center
11:14PM 36.1497 -114.8136 236° Southwest 261 300 7,100 -540 Descending Los Angeles Center
11:14PM 36.1308 -114.8431 232° Southwest 257 296 6,800 -780 Descending Los Angeles Center
11:15PM 36.1183 -114.8667 237° Southwest 218 251 6,400 -1,020 Descending Los Angeles Center
11:15PM 36.0994 -114.8992 234° Southwest 225 259 5,800 -1,020 Descending Los Angeles Center
11:15PM 36.0908 -114.9186 241° Southwest 199 229 5,500 -1,020 Descending Los Angeles Center
11:16PM 36.0706 -114.9550 235° Southwest 206 237 4,800 -1,020 Descending Los Angeles Center
11:16PM 36.0728 -114.9750 278° West 192 221 4,500 -1,020 Descending Los Angeles Center
11:17PM 36.0750 -115.0178 274° West 187 215 3,800 -1,020 Descending Los Angeles Center
11:17PM 36.0733 -115.0361 264° West 184 212 3,500 -1,020 Descending Los Angeles Center
11:18PM 36.0742 -115.0789 271° West 182 209 2,800 -900 Descending Los Angeles Center
11:19PM 36.0742 -115.1364 270° West 175 201 2,000 -840 Descending Los Angeles Center
11:21PM 36.0667 -115.1500 219° Southwest  Level FlightAware Approximate